Batu Pahat, Malaysia
Current Conditions -  °F | °C
As of 5:00 PM on Monday 22 Dec 2014 (Local Time) from WMKJ Reporting Station
Broken Clouds Broken Clouds  
Wind Chill: 82°   Ceiling: 28000
Heat Index: 91°   Visibility: 6mi
Dew Point: 77°   Wind: 7mph
Humidity: 84%   Direction: 350°N
Pressure: 29.65"   Gusts: NA
Location:  1.85°N, 102.94°E
Report Text: WMKJ 220900Z 35006KT 260V050 9999 FEW008 FEW017CB SCT140 BKN280 28/25 Q1004
Loading
Personal Weather Stations






























Interactive Weather Map New forecast layout! Learn more

10-Day Weather Forecast

Advertisements
Track Severe Weather on mobile